Kemps Landing, Louisiana
Current Conditions -  °F | °C
As of 12:35 AM on Monday 24 Nov 2014 (Local Time) from KHEZ Reporting Station
Clear Clear  
Wind Chill: 64°   Ceiling: Unl
Heat Index: 64°   Visibility: 10mi
Dew Point: 61°   Wind: 9mph
Humidity: 88%   Direction: 200°SSW
Pressure: 29.68"   Gusts: NA
Location:  31.3468°N, 91.6624°W
Report Text: KHEZ 240635Z AUTO 20008KT 10SM CLR 18/16 A2968 RMK AO1
Loading
Personal Weather Stations






























Interactive Weather Map New forecast layout! Learn more

10-Day Weather Forecast

Advertisements
Track Severe Weather on mobile